createdAt,value
2023-05-22T00:00:01.813Z,208.36
2023-05-22T00:01:01.777Z,206.54
2023-05-22T00:02:01.846Z,209.15
2023-05-22T00:03:01.834Z,213.89
2023-05-22T00:04:01.733Z,218.70
2023-05-22T00:05:01.749Z,218.84
2023-05-22T00:06:01.709Z,220.45
2023-05-22T00:07:01.713Z,222.08
2023-05-22T00:08:01.719Z,224.19
2023-05-22T00:09:01.689Z,227.42
2023-05-22T00:10:01.727Z,228.05
2023-05-22T00:11:02.219Z,233.37
2023-05-22T00:12:01.640Z,234.03
2023-05-22T00:13:01.604Z,234.19
2023-05-22T00:14:01.593Z,234.69
2023-05-22T00:15:01.600Z,237.05
2023-05-22T00:16:01.578Z,239.97
2023-05-22T00:17:01.649Z,241.55
2023-05-22T00:18:01.586Z,243.69
2023-05-22T00:19:01.632Z,244.23
2023-05-22T00:20:01.541Z,246.04
2023-05-22T00:21:01.514Z,244.23
2023-05-22T00:22:01.519Z,238.59
2023-05-22T00:23:01.489Z,237.73
2023-05-22T00:24:01.463Z,238.24
2023-05-22T00:25:01.477Z,237.73
2023-05-22T00:26:01.462Z,237.56
2023-05-22T00:27:01.422Z,237.22
2023-05-22T00:28:01.408Z,239.28
2023-05-22T00:29:01.413Z,239.80
2023-05-22T00:30:01.743Z,240.32
2023-05-22T00:31:01.406Z,239.62
2023-05-22T00:32:01.512Z,235.69
2023-05-22T00:33:01.379Z,228.52
2023-05-22T00:34:01.388Z,222.38
2023-05-22T00:35:01.331Z,219.57
2023-05-22T00:36:01.308Z,219.86
2023-05-22T00:37:01.301Z,222.38
2023-05-22T00:38:01.304Z,218.55
2023-05-22T00:39:01.278Z,214.72
2023-05-22T00:40:01.276Z,211.15
2023-05-22T00:41:01.248Z,207.44
2023-05-22T00:42:01.235Z,205.13
2023-05-22T00:43:01.250Z,205.38
2023-05-22T00:44:01.211Z,206.41
2023-05-22T00:45:01.202Z,209.15
2023-05-22T00:46:01.187Z,209.55
2023-05-22T00:47:01.289Z,209.02
2023-05-22T00:48:01.177Z,205.38
2023-05-22T00:49:01.166Z,202.99
2023-05-22T00:50:01.169Z,200.40
2023-05-22T00:51:01.119Z,194.62
2023-05-22T00:52:01.125Z,195.08
2023-05-22T00:53:01.089Z,193.14
2023-05-22T00:54:01.084Z,192.69
2023-05-22T00:55:01.089Z,191.46
2023-05-22T00:56:01.050Z,188.62
2023-05-22T00:57:01.059Z,188.62
2023-05-22T00:58:01.021Z,187.24
2023-05-22T00:59:01.026Z,174.22
2023-05-22T01:00:01.010Z,156.83
2023-05-22T01:01:01.011Z,137.02
2023-05-22T01:02:01.010Z,118.56
2023-05-22T01:03:01.034Z,106.47
2023-05-22T01:04:01.101Z,99.60
2023-05-22T01:05:00.935Z,94.66
2023-05-22T01:06:00.918Z,91.85
2023-05-22T01:07:00.943Z,91.15
2023-05-22T01:08:00.896Z,92.76
2023-05-22T01:09:00.894Z,93.77
2023-05-22T01:10:00.871Z,97.41
2023-05-22T01:11:00.858Z,100.61
2023-05-22T01:12:00.873Z,103.08
2023-05-22T01:13:00.907Z,105.81
2023-05-22T01:14:00.818Z,105.54
2023-05-22T01:15:00.815Z,103.65
2023-05-22T01:16:00.836Z,100.43
2023-05-22T01:17:00.772Z,94.99
2023-05-22T01:18:00.814Z,92.56
2023-05-22T01:19:00.773Z,88.28
2023-05-22T01:20:00.742Z,84.89
2023-05-22T01:21:00.719Z,80.89
2023-05-22T01:22:00.724Z,76.68
2023-05-22T01:23:00.706Z,74.18
2023-05-22T01:24:00.679Z,72.02
2023-05-22T01:25:00.711Z,70.27
2023-05-22T01:26:00.658Z,68.72
2023-05-22T01:27:00.648Z,67.45
2023-05-22T01:28:00.641Z,66.23
2023-05-22T01:29:00.624Z,65.20
2023-05-22T01:30:00.619Z,65.10
2023-05-22T01:31:00.590Z,65.15
2023-05-22T01:32:00.582Z,64.70
2023-05-22T01:33:00.630Z,64.06
2023-05-22T01:34:00.667Z,62.96
2023-05-22T01:35:00.542Z,62.77
2023-05-22T01:36:00.552Z,62.03
2023-05-22T01:37:00.525Z,61.04
2023-05-22T01:38:00.519Z,60.21
2023-05-22T01:39:00.498Z,59.48
2023-05-22T01:40:00.501Z,58.98
2023-05-22T01:41:00.469Z,58.57
2023-05-22T01:42:00.468Z,58.00
2023-05-22T01:43:00.441Z,57.49
2023-05-22T01:44:00.433Z,57.72
2023-05-22T01:45:00.412Z,58.12
2023-05-22T01:46:00.479Z,58.98
2023-05-22T01:47:00.406Z,60.25
2023-05-22T01:48:00.449Z,61.89
2023-05-22T01:49:00.375Z,64.21
2023-05-22T01:50:00.360Z,66.97
2023-05-22T01:51:00.351Z,69.34
2023-05-22T01:52:00.332Z,71.89
2023-05-22T01:53:00.316Z,73.66
2023-05-22T01:54:00.404Z,75.92
2023-05-22T01:55:00.281Z,77.67
2023-05-22T01:56:00.302Z,79.81
2023-05-22T01:57:00.266Z,81.75
2023-05-22T01:58:00.257Z,82.64
2023-05-22T01:59:00.235Z,82.88
2023-05-22T02:00:00.244Z,82.39
2023-05-22T02:01:00.873Z,81.20
2023-05-22T02:02:00.276Z,80.50
2023-05-22T02:03:00.385Z,78.54
2023-05-22T02:04:00.243Z,77.60
2023-05-22T02:05:00.204Z,75.78
2023-05-22T02:06:00.210Z,73.79
2023-05-22T02:07:00.137Z,72.77
2023-05-22T02:08:00.132Z,72.39
2023-05-22T02:09:00.126Z,70.21
2023-05-22T02:10:00.143Z,67.94
2023-05-22T02:11:00.072Z,65.30
2023-05-22T02:12:00.121Z,62.67
2023-05-22T02:13:00.085Z,60.47
2023-05-22T02:14:00.054Z,59.69
2023-05-22T02:15:00.029Z,59.82
2023-05-22T02:16:00.096Z,60.60
2023-05-22T02:17:00.003Z,62.35
2023-05-22T02:18:00.067Z,64.40
2023-05-22T02:19:00.033Z,65.15
2023-05-22T02:19:59.962Z,63.19
2023-05-22T02:20:59.946Z,57.72
2023-05-22T02:21:59.940Z,52.79
2023-05-22T02:22:59.961Z,48.64
2023-05-22T02:23:59.926Z,45.53
2023-05-22T02:24:59.904Z,43.11
2023-05-22T02:25:59.900Z,41.17
2023-05-22T02:26:59.875Z,39.25
2023-05-22T02:27:59.852Z,37.97
2023-05-22T02:28:59.892Z,36.08
2023-05-22T02:29:59.835Z,35.15
2023-05-22T02:30:59.856Z,34.18
2023-05-22T02:31:59.833Z,33.18
2023-05-22T02:32:59.851Z,32.46
2023-05-22T02:33:59.787Z,31.59
2023-05-22T02:34:59.804Z,30.49
2023-05-22T02:35:59.778Z,29.48
2023-05-22T02:36:59.734Z,28.24
2023-05-22T02:37:59.728Z,27.16
2023-05-22T02:38:59.727Z,26.18
2023-05-22T02:39:59.712Z,25.31
2023-05-22T02:40:59.711Z,24.66
2023-05-22T02:41:59.681Z,23.97
2023-05-22T02:42:59.689Z,23.14
2023-05-22T02:43:59.645Z,22.55
2023-05-22T02:44:59.662Z,22.12
2023-05-22T02:45:59.632Z,21.69
2023-05-22T02:46:59.777Z,21.36
2023-05-22T02:47:59.618Z,21.12
2023-05-22T02:48:59.581Z,20.85
2023-05-22T02:49:59.583Z,20.62
2023-05-22T02:50:59.555Z,20.28
2023-05-22T02:51:59.571Z,19.94
2023-05-22T02:52:59.539Z,19.64
2023-05-22T02:53:59.565Z,19.32
2023-05-22T02:54:59.505Z,18.92
2023-05-22T02:55:59.511Z,18.53
2023-05-22T02:56:59.526Z,18.23
2023-05-22T02:57:59.488Z,17.96
2023-05-22T02:58:59.465Z,17.89
2023-05-22T02:59:59.454Z,17.69
2023-05-22T03:00:59.441Z,17.66
2023-05-22T03:01:59.475Z,17.76
2023-05-22T03:02:59.548Z,17.78
2023-05-22T03:03:59.414Z,17.65
2023-05-22T03:04:59.377Z,17.66
2023-05-22T03:05:59.367Z,17.60
2023-05-22T03:06:59.355Z,17.59
2023-05-22T03:07:59.334Z,17.45
2023-05-22T03:08:59.348Z,17.37
2023-05-22T03:09:59.303Z,17.35
2023-05-22T03:10:59.307Z,17.28
2023-05-22T03:11:59.295Z,17.20
2023-05-22T03:12:59.289Z,17.16
2023-05-22T03:13:59.294Z,17.08
2023-05-22T03:14:59.316Z,17.11
2023-05-22T03:15:59.249Z,17.14
2023-05-22T03:16:59.219Z,17.10
2023-05-22T03:17:59.267Z,17.14
2023-05-22T03:18:59.212Z,17.13
2023-05-22T03:19:59.185Z,17.13
2023-05-22T03:20:59.186Z,17.13
2023-05-22T03:21:59.182Z,17.06
2023-05-22T03:22:59.179Z,17.00
2023-05-22T03:23:59.162Z,17.06
2023-05-22T03:24:59.142Z,17.06
2023-05-22T03:25:59.100Z,17.03
2023-05-22T03:26:59.124Z,17.04
2023-05-22T03:27:59.092Z,16.95
2023-05-22T03:28:59.132Z,16.89
2023-05-22T03:29:59.086Z,16.81
2023-05-22T03:30:59.046Z,16.73
2023-05-22T03:31:59.049Z,16.65
2023-05-22T03:32:59.061Z,16.65
2023-05-22T03:33:59.032Z,16.50
2023-05-22T03:34:59.012Z,16.38
2023-05-22T03:35:58.982Z,16.33
2023-05-22T03:36:58.974Z,16.24
2023-05-22T03:37:58.976Z,16.22
2023-05-22T03:38:58.954Z,16.19
2023-05-22T03:39:58.975Z,16.32
2023-05-22T03:40:58.917Z,16.19
2023-05-22T03:41:58.912Z,16.09
2023-05-22T03:42:58.900Z,16.14
2023-05-22T03:43:58.914Z,16.18
2023-05-22T03:44:58.864Z,16.17
2023-05-22T03:45:58.898Z,16.19
2023-05-22T03:46:58.866Z,16.17
2023-05-22T03:47:58.830Z,16.10
2023-05-22T03:48:58.844Z,16.17
2023-05-22T03:49:58.796Z,16.15
2023-05-22T03:50:58.779Z,16.14
2023-05-22T03:51:58.785Z,16.20
2023-05-22T03:52:58.777Z,16.19
2023-05-22T03:53:58.766Z,16.23
2023-05-22T03:54:58.729Z,16.29
2023-05-22T03:55:58.720Z,16.30
2023-05-22T03:56:58.719Z,16.32
2023-05-22T03:57:58.684Z,16.30
2023-05-22T03:58:58.683Z,16.37
2023-05-22T03:59:58.692Z,16.37
2023-05-22T04:00:58.715Z,16.44
2023-05-22T04:01:58.668Z,16.53
2023-05-22T04:02:58.968Z,16.55
2023-05-22T04:03:58.609Z,16.56
2023-05-22T04:04:58.649Z,16.64
2023-05-22T04:05:58.598Z,16.52
2023-05-22T04:06:58.574Z,16.51
2023-05-22T04:07:58.573Z,16.53
2023-05-22T04:08:58.563Z,16.51
2023-05-22T04:09:58.538Z,16.50
2023-05-22T04:10:58.536Z,16.51
2023-05-22T04:11:58.507Z,16.55
2023-05-22T04:12:58.502Z,16.47
2023-05-22T04:13:58.495Z,16.47
2023-05-22T04:14:58.487Z,16.47
2023-05-22T04:15:58.505Z,16.41
2023-05-22T04:16:58.493Z,16.42
2023-05-22T04:17:58.464Z,16.48
2023-05-22T04:18:58.445Z,16.63
2023-05-22T04:19:58.424Z,16.63
2023-05-22T04:20:58.399Z,16.78
2023-05-22T04:21:58.398Z,16.76
2023-05-22T04:22:58.396Z,16.92
2023-05-22T04:23:58.351Z,16.93
2023-05-22T04:24:58.375Z,17.03
2023-05-22T04:25:58.319Z,17.07
2023-05-22T04:26:58.325Z,17.17
2023-05-22T04:27:58.299Z,17.23
2023-05-22T04:28:58.327Z,17.25
2023-05-22T04:29:58.284Z,17.20
2023-05-22T04:30:58.280Z,17.20
2023-05-22T04:31:58.266Z,17.04
2023-05-22T04:32:58.256Z,17.00
2023-05-22T04:33:58.289Z,16.93
2023-05-22T04:34:58.272Z,16.93
2023-05-22T04:35:58.200Z,17.03
2023-05-22T04:36:58.178Z,17.03
2023-05-22T04:37:58.187Z,17.03
2023-05-22T04:38:58.157Z,16.92
2023-05-22T04:39:58.179Z,16.63
2023-05-22T04:40:58.172Z,16.32
2023-05-22T04:41:58.139Z,16.02
2023-05-22T04:42:58.115Z,15.94
2023-05-22T04:43:58.167Z,15.94
2023-05-22T04:44:58.125Z,16.00
2023-05-22T04:45:58.077Z,16.18
2023-05-22T04:46:58.148Z,16.30
2023-05-22T04:47:58.060Z,16.42
2023-05-22T04:48:58.054Z,16.64
2023-05-22T04:49:58.010Z,16.98
2023-05-22T04:50:58.008Z,17.33
2023-05-22T04:51:58.012Z,17.79
2023-05-22T04:52:57.984Z,18.26
2023-05-22T04:53:57.997Z,18.83
2023-05-22T04:54:59.944Z,18.55
2023-05-22T04:55:57.959Z,18.04
2023-05-22T04:56:57.929Z,18.10
2023-05-22T04:57:57.933Z,19.07
2023-05-22T04:58:57.906Z,20.52
2023-05-22T04:59:57.918Z,22.62
2023-05-22T05:00:57.906Z,24.38
2023-05-22T05:01:57.860Z,25.94
2023-05-22T05:02:57.988Z,27.50
2023-05-22T05:03:57.897Z,28.70
2023-05-22T05:04:57.835Z,29.65
2023-05-22T05:05:57.814Z,31.10
2023-05-22T05:06:57.794Z,32.31
2023-05-22T05:07:57.788Z,34.40
2023-05-22T05:08:57.785Z,36.58
2023-05-22T05:09:57.759Z,39.17
2023-05-22T05:10:57.766Z,41.33
2023-05-22T05:11:57.729Z,43.51
2023-05-22T05:12:57.749Z,46.08
2023-05-22T05:13:57.708Z,48.56
2023-05-22T05:14:57.709Z,50.48
2023-05-22T05:15:57.677Z,52.08
2023-05-22T05:16:57.694Z,52.89
2023-05-22T05:17:57.677Z,55.29
2023-05-22T05:18:57.660Z,57.69
2023-05-22T05:19:57.619Z,58.61
2023-05-22T05:20:57.610Z,59.15
2023-05-22T05:21:57.610Z,58.57
2023-05-22T05:22:57.609Z,58.57
2023-05-22T05:23:57.587Z,57.21
2023-05-22T05:24:57.562Z,55.77
2023-05-22T05:25:57.564Z,55.92
2023-05-22T05:26:57.547Z,57.49
2023-05-22T05:27:57.572Z,58.00
2023-05-22T05:28:57.578Z,58.57
2023-05-22T05:29:57.523Z,57.61
2023-05-22T05:30:57.479Z,55.01
2023-05-22T05:31:57.520Z,53.50
2023-05-22T05:32:57.532Z,53.26
2023-05-22T05:33:57.444Z,53.53
2023-05-22T05:34:57.451Z,53.50
2023-05-22T05:35:57.423Z,52.99
2023-05-22T05:36:57.498Z,51.98
2023-05-22T05:37:57.387Z,54.61
2023-05-22T05:38:57.390Z,57.53
2023-05-22T05:39:57.455Z,58.82
2023-05-22T05:40:57.370Z,60.21
2023-05-22T05:41:57.344Z,60.16
2023-05-22T05:42:57.347Z,58.57
2023-05-22T05:43:57.332Z,54.19
2023-05-22T05:44:57.298Z,54.86
2023-05-22T05:45:57.345Z,54.40
2023-05-22T05:46:57.301Z,54.47
2023-05-22T05:47:57.273Z,55.55
2023-05-22T05:48:57.259Z,54.72
2023-05-22T05:49:57.241Z,56.22
2023-05-22T05:50:57.263Z,58.37
2023-05-22T05:51:57.230Z,60.25
2023-05-22T05:52:57.210Z,62.96
2023-05-22T05:53:57.204Z,64.26
2023-05-22T05:54:57.232Z,64.70
2023-05-22T05:55:57.161Z,66.60
2023-05-22T05:56:57.178Z,68.67
2023-05-22T05:57:57.140Z,70.21
2023-05-22T05:58:57.144Z,70.21
2023-05-22T05:59:57.115Z,71.04
2023-05-22T06:00:57.101Z,69.57
2023-05-22T06:01:57.075Z,70.10
2023-05-22T06:02:57.144Z,71.41
2023-05-22T06:03:57.120Z,70.80
2023-05-22T06:04:57.043Z,72.39
2023-05-22T06:05:57.085Z,74.77
2023-05-22T06:06:57.024Z,74.64
2023-05-22T06:07:57.024Z,77.82
2023-05-22T06:08:56.995Z,80.73
2023-05-22T06:09:56.982Z,82.31
2023-05-22T06:10:56.969Z,82.31
2023-05-22T06:11:56.954Z,78.04
2023-05-22T06:12:56.984Z,73.46
2023-05-22T06:13:56.939Z,78.77
2023-05-22T06:14:56.926Z,83.79
2023-05-22T06:15:59.557Z,83.96
2023-05-22T06:16:56.928Z,85.06
2023-05-22T06:17:56.936Z,84.63
2023-05-22T06:18:56.911Z,84.13
2023-05-22T06:19:56.853Z,82.23
2023-05-22T06:20:56.850Z,80.58
2023-05-22T06:21:56.832Z,77.96
2023-05-22T06:22:56.821Z,76.89
2023-05-22T06:23:56.837Z,73.72
2023-05-22T06:24:56.784Z,70.98
2023-05-22T06:25:56.764Z,68.89
2023-05-22T06:26:56.759Z,68.05
2023-05-22T06:27:56.756Z,67.45
2023-05-22T06:28:56.743Z,65.92
2023-05-22T06:29:56.754Z,64.55
2023-05-22T06:30:56.745Z,66.23
2023-05-22T06:31:56.742Z,67.89
2023-05-22T06:32:56.725Z,70.39
2023-05-22T06:33:56.725Z,73.40
2023-05-22T06:34:56.676Z,78.32
2023-05-22T06:35:56.641Z,78.54
2023-05-22T06:36:56.639Z,80.97
2023-05-22T06:37:56.619Z,82.23
2023-05-22T06:38:56.619Z,84.46
2023-05-22T06:39:56.594Z,88.00
2023-05-22T06:40:56.615Z,90.56
2023-05-22T06:41:56.567Z,94.64
2023-05-22T06:42:56.587Z,97.58
2023-05-22T06:43:56.546Z,102.08
2023-05-22T06:44:56.529Z,110.03
2023-05-22T06:45:56.545Z,115.87
2023-05-22T06:46:56.535Z,114.45
2023-05-22T06:47:56.503Z,113.67
2023-05-22T06:48:56.483Z,112.91
2023-05-22T06:49:56.469Z,114.60
2023-05-22T06:50:56.484Z,119.92
2023-05-22T06:51:56.437Z,125.19
2023-05-22T06:52:56.438Z,129.43
2023-05-22T06:53:56.446Z,131.97
2023-05-22T06:54:56.411Z,135.58
2023-05-22T06:55:56.390Z,142.12
2023-05-22T06:56:56.367Z,150.11
2023-05-22T06:57:56.354Z,161.50
2023-05-22T06:58:56.370Z,163.70
2023-05-22T06:59:56.348Z,163.07
2023-05-22T07:00:56.418Z,173.15
2023-05-22T07:01:56.323Z,182.74
2023-05-22T07:02:56.378Z,193.48
2023-05-22T07:03:56.301Z,197.65
2023-05-22T07:04:56.280Z,198.84
2023-05-22T07:05:56.319Z,197.29
2023-05-22T07:06:56.253Z,206.54
2023-05-22T07:07:56.238Z,210.08
2023-05-22T07:08:56.252Z,216.55
2023-05-22T07:09:56.211Z,213.20
2023-05-22T07:10:56.210Z,210.75
2023-05-22T07:11:56.176Z,216.12
2023-05-22T07:12:56.166Z,213.89
2023-05-22T07:13:56.158Z,212.10
2023-05-22T07:14:56.163Z,207.05
2023-05-22T07:15:56.146Z,213.34
2023-05-22T07:16:56.171Z,217.98
2023-05-22T07:17:56.134Z,213.75
2023-05-22T07:18:56.132Z,205.38
2023-05-22T07:19:56.110Z,205.51
2023-05-22T07:20:56.074Z,197.88
2023-05-22T07:21:56.068Z,198.36
2023-05-22T07:22:56.049Z,207.31
2023-05-22T07:23:56.051Z,238.07
2023-05-22T07:24:56.027Z,244.23
2023-05-22T07:25:56.043Z,234.69
2023-05-22T07:26:56.007Z,229.64
2023-05-22T07:27:55.977Z,228.84
2023-05-22T07:28:55.970Z,227.90
2023-05-22T07:29:55.989Z,231.40
2023-05-22T07:30:55.951Z,239.97
2023-05-22T07:31:56.046Z,239.80
2023-05-22T07:32:56.027Z,231.24
2023-05-22T07:33:55.914Z,224.79
2023-05-22T07:34:55.968Z,231.57
2023-05-22T07:35:55.902Z,232.38
2023-05-22T07:36:55.870Z,222.38
2023-05-22T07:37:55.876Z,215.70
2023-05-22T07:38:55.851Z,209.15
2023-05-22T07:39:55.828Z,199.43
2023-05-22T07:40:55.829Z,201.87
2023-05-22T07:41:57.221Z,202.49
2023-05-22T07:42:55.825Z,199.19
2023-05-22T07:43:55.786Z,195.31
2023-05-22T07:44:55.775Z,192.80
2023-05-22T07:45:55.791Z,194.39
2023-05-22T07:46:55.781Z,206.02
2023-05-22T07:47:56.505Z,208.49
2023-05-22T07:48:55.744Z,213.75
2023-05-22T07:49:55.708Z,209.02
2023-05-22T07:50:55.727Z,208.23
2023-05-22T07:51:55.694Z,203.74
2023-05-22T07:52:55.666Z,211.29
2023-05-22T07:53:55.676Z,201.01
2023-05-22T07:54:55.672Z,184.75
2023-05-22T07:55:55.629Z,195.31
2023-05-22T07:56:55.627Z,217.69
2023-05-22T07:57:55.612Z,233.20
2023-05-22T07:58:55.619Z,242.43
2023-05-22T07:59:55.595Z,254.96
2023-05-22T08:00:55.601Z,269.08
2023-05-22T08:01:57.933Z,266.04
2023-05-22T08:02:55.625Z,275.35
2023-05-22T08:03:55.792Z,297.67
2023-05-22T08:04:55.532Z,301.47
2023-05-22T08:05:55.500Z,297.40
2023-05-22T08:06:55.502Z,298.74
2023-05-22T08:07:55.471Z,307.92
2023-05-22T08:08:55.471Z,312.58
2023-05-22T08:09:55.456Z,318.92
2023-05-22T08:11:04.140Z,311.11
2023-05-22T08:11:55.467Z,312.58
2023-05-22T08:12:55.423Z,315.87
2023-05-22T08:13:55.403Z,327.45
2023-05-22T08:14:55.388Z,339.55
2023-05-22T08:16:00.602Z,356.01
2023-05-22T08:16:55.416Z,363.05
2023-05-22T08:17:55.433Z,366.67
2023-05-22T08:18:55.388Z,382.81
2023-05-22T08:19:55.400Z,405.45
2023-05-22T08:20:55.343Z,443.45
2023-05-22T08:21:55.318Z,496.55
2023-05-22T08:22:56.204Z,517.99
2023-05-22T08:23:55.312Z,545.76
2023-05-22T08:24:55.277Z,558.92
2023-05-22T08:25:55.284Z,570.80
2023-05-22T08:26:55.272Z,576.18
2023-05-22T08:27:55.257Z,583.18
2023-05-22T08:28:55.273Z,603.08
2023-05-22T08:29:55.266Z,625.54
2023-05-22T08:30:55.241Z,623.22
2023-05-22T08:31:55.223Z,627.88
2023-05-22T08:32:55.274Z,644.13
2023-05-22T08:33:55.216Z,642.90
2023-05-22T08:34:55.256Z,630.23
2023-05-22T08:35:55.218Z,635.00
2023-05-22T08:36:55.216Z,684.14
2023-05-22T08:37:55.166Z,642.28
2023-05-22T08:38:55.180Z,620.34
2023-05-22T08:39:55.166Z,592.96
2023-05-22T08:40:55.176Z,579.16
2023-05-22T08:41:55.158Z,535.32
2023-05-22T08:42:55.160Z,540.49
2023-05-22T08:43:55.109Z,558.92
2023-05-22T08:44:55.170Z,573.23
2023-05-22T08:45:55.111Z,600.92
2023-05-22T08:46:55.127Z,631.42
2023-05-22T08:47:55.143Z,623.79
2023-05-22T08:48:55.100Z,609.09
2023-05-22T08:49:55.076Z,622.64
2023-05-22T08:50:55.037Z,647.23
2023-05-22T08:51:55.093Z,715.47
2023-05-22T08:52:55.031Z,731.84
2023-05-22T08:53:55.073Z,695.47
2023-05-22T08:54:55.023Z,684.14
2023-05-22T08:55:55.022Z,714.71
2023-05-22T08:56:57.113Z,713.19
2023-05-22T08:57:55.042Z,689.76
2023-05-22T08:58:54.978Z,671.83
2023-05-22T08:59:55.006Z,686.24
2023-05-22T09:00:55.056Z,730.25
2023-05-22T09:01:54.970Z,713.19
2023-05-22T09:02:55.027Z,701.28
2023-05-22T09:03:54.980Z,672.50
2023-05-22T09:04:54.938Z,689.05
2023-05-22T09:05:54.943Z,673.85
2023-05-22T09:06:54.951Z,652.26
2023-05-22T09:07:56.613Z,665.18
2023-05-22T09:08:54.911Z,658.01
2023-05-22T09:09:54.903Z,679.99
2023-05-22T09:10:54.897Z,743.17
2023-05-22T09:11:54.931Z,796.33
2023-05-22T09:12:54.916Z,791.18
2023-05-22T09:13:54.869Z,776.56
2023-05-22T09:14:55.353Z,797.75
2023-05-22T09:15:54.896Z,806.35
2023-05-22T09:16:54.905Z,796.80
2023-05-22T09:17:54.851Z,803.46
2023-05-22T09:18:54.866Z,821.62
2023-05-22T09:19:54.821Z,809.75
2023-05-22T09:20:54.813Z,798.69
2023-05-22T09:21:54.827Z,795.86
2023-05-22T09:22:54.825Z,822.13
2023-05-22T09:23:54.794Z,796.33
2023-05-22T09:24:54.807Z,793.04
2023-05-22T09:25:54.779Z,833.85
2023-05-22T09:26:54.776Z,839.05
2023-05-22T09:27:54.816Z,841.15
2023-05-22T09:28:54.764Z,850.19
2023-05-22T09:29:54.761Z,856.69
2023-05-22T09:30:54.836Z,896.67
2023-05-22T09:31:54.790Z,914.97
2023-05-22T09:32:54.766Z,886.03
2023-05-22T09:33:54.773Z,935.98
2023-05-22T09:34:54.707Z,915.59
2023-05-22T09:35:54.697Z,888.96
2023-05-22T09:36:54.713Z,845.91
2023-05-22T09:37:54.695Z,906.33
2023-05-22T09:38:54.710Z,939.24
2023-05-22T09:39:54.688Z,968.32
2023-05-22T09:40:54.668Z,997.03
2023-05-22T09:41:54.658Z,1012.04
2023-05-22T09:42:54.663Z,1022.04
2023-05-22T09:43:54.646Z,1136.94
2023-05-22T09:44:54.653Z,1073.42
2023-05-22T09:45:54.658Z,1032.23
2023-05-22T09:46:54.666Z,1044.25
2023-05-22T09:47:54.727Z,1079.45
2023-05-22T09:48:54.626Z,1149.57
2023-05-22T09:49:54.614Z,1183.98
2023-05-22T09:50:54.586Z,1136.94
2023-05-22T09:51:54.578Z,1146.63
2023-05-22T09:52:54.618Z,1082.06
2023-05-22T09:53:54.579Z,1134.06
2023-05-22T09:54:54.587Z,1121.77
2023-05-22T09:55:54.575Z,1163.49
2023-05-22T09:56:54.547Z,1213.90
2023-05-22T09:57:54.554Z,1211.71
2023-05-22T09:58:54.531Z,1276.09
2023-05-22T09:59:54.651Z,1176.73
2023-05-22T10:00:54.563Z,1248.84
2023-05-22T10:01:54.616Z,1265.29
2023-05-22T10:02:54.554Z,1190.27
2023-05-22T10:03:54.594Z,1098.86
2023-05-22T10:04:54.579Z,1141.77
2023-05-22T10:05:54.505Z,1187.11
2023-05-22T10:06:54.498Z,1198.75
2023-05-22T10:07:54.455Z,1109.74
2023-05-22T10:08:54.483Z,1168.55
2023-05-22T10:09:54.492Z,1144.68
2023-05-22T10:10:54.465Z,1171.60
2023-05-22T10:11:54.431Z,1186.07
2023-05-22T10:12:54.449Z,1121.77
2023-05-22T10:13:54.419Z,1053.25
2023-05-22T10:14:54.408Z,1122.70
2023-05-22T10:15:54.441Z,1188.16
2023-05-22T10:16:54.424Z,1177.76
2023-05-22T10:17:54.397Z,1097.06
2023-05-22T10:18:54.452Z,1157.49
2023-05-22T10:19:54.363Z,1125.52
2023-05-22T10:20:54.366Z,1257.01
2023-05-22T10:21:54.385Z,1455.63
2023-05-22T10:22:54.363Z,1507.85
2023-05-22T10:23:54.348Z,1438.50
2023-05-22T10:24:54.361Z,1257.01
2023-05-22T10:25:54.319Z,1199.82
2023-05-22T10:26:54.314Z,1390.90
2023-05-22T10:27:54.354Z,1452.48
2023-05-22T10:28:54.323Z,1466.74
2023-05-22T10:29:54.312Z,1487.83
2023-05-22T10:30:54.346Z,1495.28
2023-05-22T10:31:54.297Z,1555.81
2023-05-22T10:32:54.348Z,1542.43
2023-05-22T10:33:54.319Z,1502.79
2023-05-22T10:34:54.281Z,1519.77
2023-05-22T10:35:54.259Z,1482.91
2023-05-22T10:36:56.117Z,1521.49
2023-05-22T10:37:54.286Z,1497.77
2023-05-22T10:38:54.247Z,1478.02
2023-05-22T10:39:54.275Z,1403.97
2023-05-22T10:40:54.241Z,1218.30
2023-05-22T10:41:54.218Z,1133.11
2023-05-22T10:42:54.250Z,1221.62
2023-05-22T10:43:54.207Z,1297.01
2023-05-22T10:44:54.209Z,1379.49
2023-05-22T10:45:54.291Z,1338.31
2023-05-22T10:46:54.207Z,1474.78
2023-05-22T10:47:54.204Z,1537.14
2023-05-22T10:48:54.190Z,1486.19
2023-05-22T10:49:54.177Z,1497.77
2023-05-22T10:50:54.151Z,1565.77
2023-05-22T10:51:54.225Z,1723.25
2023-05-22T10:52:54.175Z,1823.73
2023-05-22T10:53:54.225Z,1809.01
2023-05-22T10:54:54.198Z,1917.32
2023-05-22T10:55:54.123Z,2036.34
2023-05-22T10:56:54.130Z,1759.32
2023-05-22T10:57:54.189Z,1561.23
2023-05-22T10:58:54.098Z,1430.85
2023-05-22T10:59:54.099Z,1509.54
2023-05-22T11:00:54.173Z,1533.64
2023-05-22T11:01:54.106Z,1458.79
2023-05-22T11:02:55.261Z,1379.49
2023-05-22T11:03:54.199Z,1347.69
2023-05-22T11:04:54.077Z,1290.79
2023-05-22T11:05:54.085Z,1427.81
2023-05-22T11:06:54.228Z,1489.48
2023-05-22T11:07:54.095Z,1465.14
2023-05-22T11:08:54.073Z,1408.38
2023-05-22T11:09:54.030Z,1589.83
2023-05-22T11:10:54.179Z,1795.73
2023-05-22T11:11:54.060Z,1898.38
2023-05-22T11:12:54.009Z,1870.65
2023-05-22T11:13:54.045Z,1982.31
2023-05-22T11:14:53.984Z,2136.62
2023-05-22T11:15:54.010Z,2160.64
2023-05-22T11:16:54.018Z,2192.34
2023-05-22T11:17:54.018Z,2150.28
2023-05-22T11:18:54.038Z,2436.59
2023-05-22T11:19:54.019Z,2500.00
2023-05-22T11:20:53.942Z,2376.32
2023-05-22T11:21:53.948Z,2279.66
2023-05-22T11:22:53.937Z,2425.61
2023-05-22T11:23:53.934Z,2343.21
2023-05-22T11:24:54.004Z,2326.99
2023-05-22T11:25:53.908Z,2523.45
2023-05-22T11:26:53.906Z,2347.29
2023-05-22T11:27:53.927Z,2564.35
2023-05-22T11:28:53.916Z,2518.73
2023-05-22T11:29:53.889Z,2363.80
2023-05-22T11:30:54.058Z,2345.25
2023-05-22T11:31:53.873Z,2658.10
2023-05-22T11:32:53.880Z,2711.69
2023-05-22T11:33:53.905Z,2621.83
2023-05-22T11:34:53.861Z,2547.35
2023-05-22T11:35:53.847Z,2201.31
2023-05-22T11:36:53.883Z,1909.16
2023-05-22T11:37:53.834Z,1942.24
2023-05-22T11:38:53.804Z,2021.04
2023-05-22T11:39:53.930Z,1875.87
2023-05-22T11:40:53.822Z,1821.26
2023-05-22T11:41:53.804Z,1817.57
2023-05-22T11:42:53.820Z,2053.44
2023-05-22T11:43:53.792Z,2098.28
2023-05-22T11:44:53.849Z,2217.64
2023-05-22T11:45:53.829Z,2256.71
2023-05-22T11:46:53.994Z,2228.67
2023-05-22T11:47:53.810Z,2486.14
2023-05-22T11:48:53.764Z,2456.62
2023-05-22T11:49:53.801Z,2395.37
2023-05-22T11:50:53.840Z,2514.02
2023-05-22T11:51:53.802Z,2412.56
2023-05-22T11:52:53.830Z,2190.55
2023-05-22T11:53:53.869Z,2374.23
2023-05-22T11:54:53.726Z,2476.98
2023-05-22T11:55:53.746Z,2452.14
2023-05-22T11:56:53.726Z,2157.18
2023-05-22T11:57:53.756Z,1859.02
2023-05-22T11:58:53.685Z,1911.87
2023-05-22T11:59:53.679Z,1983.78
2023-05-22T12:00:53.735Z,2075.62
2023-05-22T12:01:53.656Z,2376.32
2023-05-22T12:02:53.739Z,2384.75
2023-05-22T12:03:53.792Z,2523.45
2023-05-22T12:04:53.674Z,2658.10
2023-05-22T12:05:53.641Z,2599.03
2023-05-22T12:06:53.793Z,2419.06
2023-05-22T12:07:53.612Z,2124.80
2023-05-22T12:08:53.616Z,1957.79
2023-05-22T12:09:53.755Z,1973.59
2023-05-22T12:10:53.618Z,1759.32
2023-05-22T12:11:53.571Z,1587.96
2023-05-22T12:12:53.722Z,1567.60
2023-05-22T12:13:53.572Z,1497.77
2023-05-22T12:14:53.555Z,1430.85
2023-05-22T12:15:53.799Z,1542.43
2023-05-22T12:16:53.680Z,1606.93
2023-05-22T12:17:53.614Z,1569.43
2023-05-22T12:18:53.785Z,1749.02
2023-05-22T12:19:53.516Z,1869.35
2023-05-22T12:20:53.521Z,2072.42
2023-05-22T12:21:53.754Z,2108.15
2023-05-22T12:22:53.498Z,2085.27
2023-05-22T12:23:53.487Z,2158.91
2023-05-22T12:24:53.597Z,2131.54
2023-05-22T12:25:53.473Z,2140.02
2023-05-22T12:26:53.494Z,2066.05
2023-05-22T12:27:53.671Z,1976.49
2023-05-22T12:28:53.458Z,1774.41
2023-05-22T12:29:53.457Z,1715.56
2023-05-22T12:30:53.438Z,1573.10
2023-05-22T12:31:53.513Z,1512.94
2023-05-22T12:32:53.445Z,1625.38